Time;durP1;ratioP1;P1;durP2;ratioP2;P2;SDS_P1;SDS_P2;PMS_P1;PMS_P2;Temp;Humidity;BMP_temperature;BMP_pressure;BME280_temperature;BME280_humidity;BME280_pressure;Samples;Min_cycle;Max_cycle;Signal;HPM_P1;HPM_P2
2023/06/28 00:01:27;;;;;;;6.93;1.67;;;;;;;17.22;100.00;101888.16;5089610;28;19913;-37
2023/06/28 00:03:53;;;;;;;;;;;;;;;17.46;100.00;101894.25;5089485;28;20483;-37
2023/06/28 00:06:19;;;;;;;4.20;1.73;;;;;;;17.33;100.00;101884.53;5089266;28;19961;-37
2023/06/28 00:08:45;;;;;;;4.43;2.10;;;;;;;17.27;100.00;101885.50;5089350;28;20469;-37
2023/06/28 00:11:11;;;;;;;4.10;2.00;;;;;;;17.27;100.00;101881.94;5080170;28;20474;-37
2023/06/28 00:13:36;;;;;;;3.92;2.10;;;;;;;17.10;100.00;101893.72;5075638;28;20024;-37
2023/06/28 00:16:02;;;;;;;;;;;;;;;17.31;100.00;101880.38;5076604;28;20040;-37
2023/06/28 00:18:29;;;;;;;3.70;2.17;;;;;;;17.12;100.00;101877.91;5075183;28;19940;-37
2023/06/28 00:20:54;;;;;;;5.38;2.00;;;;;;;17.11;100.00;101884.44;5075533;28;20454;-37
2023/06/28 00:23:20;;;;;;;4.22;2.20;;;;;;;17.13;100.00;101886.94;5075399;28;20047;-37
2023/06/28 00:25:45;;;;;;;;;;;;;;;17.30;100.00;101885.03;5076218;28;20099;-37
2023/06/28 00:28:10;;;;;;;4.10;1.97;;;;;;;17.20;100.00;101877.50;5075326;28;20324;-37
2023/06/28 00:30:36;;;;;;;;;;;;;;;17.35;100.00;101884.28;5076488;28;20719;-37
2023/06/28 00:33:02;;;;;;;4.97;2.40;;;;;;;17.23;100.00;101896.13;5075357;28;20260;-37
2023/06/28 00:35:27;;;;;;;5.43;2.28;;;;;;;17.14;100.00;101894.91;5075800;28;20032;-37
2023/06/28 00:37:53;;;;;;;;;;;;;;;17.33;100.00;101897.38;5075660;28;20021;-37
2023/06/28 00:40:18;;;;;;;6.40;2.38;;;;;;;17.09;100.00;101885.78;5074771;28;19924;-37
2023/06/28 00:42:43;;;;;;;;;;;;;;;17.28;100.00;101892.66;5075457;28;20036;-37
2023/06/28 00:45:13;;;;;;;8.07;2.43;;;;;;;17.08;100.00;101895.03;5074707;28;19908;-37
2023/06/28 00:47:39;;;;;;;3.80;2.03;;;;;;;17.08;100.00;101901.38;5074971;28;20259;-37
2023/06/28 00:50:06;;;;;;;6.53;2.30;;;;;;;16.93;100.00;101887.44;5074697;28;20032;-37
2023/06/28 00:52:31;;;;;;;5.82;2.55;;;;;;;16.96;100.00;101897.88;5074557;28;20029;-37
2023/06/28 00:54:57;;;;;;;6.22;2.30;;;;;;;17.01;100.00;101892.50;5075194;28;20115;-37
2023/06/28 00:57:22;;;;;;;;;;;;;;;17.12;100.00;101897.03;5075467;28;20162;-37
2023/06/28 00:59:51;;;;;;;3.75;2.47;;;;;;;16.86;100.00;101893.06;5074890;28;20403;-37
2023/06/28 01:02:17;;;;;;;5.63;2.70;;;;;;;16.95;100.00;101891.59;5074729;28;20028;-37
2023/06/28 01:04:42;;;;;;;4.97;2.30;;;;;;;16.86;100.00;101890.34;5074582;28;20020;-37
2023/06/28 01:07:08;;;;;;;;;;;;;;;17.08;100.00;101895.03;5075025;28;20111;-37
2023/06/28 01:09:33;;;;;;;4.15;2.30;;;;;;;16.91;100.00;101893.16;5074215;28;19908;-37
2023/06/28 01:11:59;;;;;;;;;;;;;;;17.07;100.00;101896.97;5074909;28;20086;-37
2023/06/28 01:14:25;;;;;;;4.57;2.60;;;;;;;16.90;100.00;101891.50;5074136;28;19908;-37
2023/06/28 01:16:55;;;;;;;4.78;2.97;;;;;;;16.84;100.00;101881.56;5074820;28;20384;-37
2023/06/28 01:19:25;;;;;;;4.00;2.20;;;;;;;16.82;100.00;101894.63;5074189;28;20029;-37
2023/06/28 01:21:56;;;;;;;4.65;2.50;;;;;;;16.90;100.00;101899.69;5074073;28;20148;-37
2023/06/28 01:24:22;;;;;;;8.57;2.90;;;;;;;16.84;100.00;101895.22;5074304;28;20082;-37
2023/06/28 01:26:52;;;;;;;5.82;2.78;;;;;;;16.81;100.00;101886.69;5074420;28;20099;-37
2023/06/28 01:29:21;;;;;;;5.82;2.60;;;;;;;16.72;100.00;101892.56;5074112;28;20435;-37
2023/06/28 01:31:52;;;;;;;4.68;2.33;;;;;;;16.77;100.00;101891.00;5074714;28;20055;-37
2023/06/28 01:34:18;;;;;;;5.43;2.58;;;;;;;16.76;100.00;101889.34;5074505;28;20089;-37
2023/06/28 01:36:46;;;;;;;4.32;2.38;;;;;;;16.77;100.00;101885.53;5074192;28;20461;-37
2023/06/28 01:39:12;;;;;;;5.35;2.60;;;;;;;16.70;100.00;101882.94;5073813;28;20467;-37
2023/06/28 01:41:39;;;;;;;6.35;3.03;;;;;;;16.67;100.00;101884.25;5074338;28;20035;-37
2023/06/28 01:44:04;;;;;;;6.10;2.55;;;;;;;16.71;100.00;101884.59;5074516;28;20083;-37
2023/06/28 01:46:30;;;;;;;4.75;1.92;;;;;;;16.72;100.00;101892.56;5074041;28;20494;-37
2023/06/28 01:48:56;;;;;;;7.63;2.88;;;;;;;16.59;100.00;101879.22;5074311;28;20036;-37
2023/06/28 01:51:21;;;;;;;6.28;2.30;;;;;;;16.69;100.00;101884.84;5072647;28;20028;-37
2023/06/28 01:53:47;;;;;;;;;;;;;;;16.83;100.00;101887.25;5073795;28;20115;-37
2023/06/28 01:56:12;;;;;;;4.07;2.22;;;;;;;16.67;100.00;101886.97;5073784;28;19908;-37
2023/06/28 01:58:38;;;;;;;;;;;;;;;16.85;100.00;101887.84;5073833;28;20044;-37
2023/06/28 02:01:03;;;;;;;5.05;2.10;;;;;;;16.79;100.00;101883.38;5073217;28;20027;-37
2023/06/28 02:03:29;;;;;;;4.10;1.92;;;;;;;16.72;100.00;101878.91;5073144;28;20111;-37
2023/06/28 02:05:54;;;;;;;;;;;;;;;16.86;100.00;101879.41;5074382;28;20048;-37
2023/06/28 02:08:20;;;;;;;5.20;2.43;;;;;;;16.67;100.00;101873.31;5073414;28;20356;-36
2023/06/28 02:10:46;;;;;;;4.47;2.08;;;;;;;16.71;100.00;101873.66;5073242;28;20027;-36
2023/06/28 02:13:11;;;;;;;4.10;2.15;;;;;;;16.68;100.00;101866.78;5073299;28;20025;-36
2023/06/28 02:15:36;;;;;;;;;;;;;;;16.88;100.00;101876.41;5073754;28;20035;-36
2023/06/28 02:18:01;;;;;;;4.87;2.07;;;;;;;16.79;100.00;101869.72;5073167;28;20024;-36
2023/06/28 02:20:27;;;;;;;;;;;;;;;16.91;100.00;101870.47;5073616;28;20286;-36
2023/06/28 02:22:52;;;;;;;4.03;2.00;;;;;;;16.69;100.00;101860.25;5073159;28;19912;-36
2023/06/28 02:25:17;;;;;;;;;;;;;;;16.83;100.00;101870.88;5073899;28;20031;-36
2023/06/28 02:27:43;;;;;;;3.60;2.10;;;;;;;16.65;100.00;101861.00;5072831;28;19913;-36
2023/06/28 02:30:08;;;;;;;;;;;;;;;16.79;100.00;101861.50;5074286;28;20285;-36
2023/06/28 02:32:34;;;;;;;5.45;2.00;;;;;;;16.65;100.00;101850.91;5073576;28;20303;-36
2023/06/28 02:34:59;;;;;;;;;;;;;;;16.77;100.00;101863.69;5073164;28;20380;-36
2023/06/28 02:37:25;;;;;;;3.63;2.10;;;;;;;16.46;100.00;101850.28;5073092;28;19951;-37
2023/06/28 02:39:50;;;;;;;;;;;;;;;16.68;100.00;101855.03;5073049;28;20336;-36
2023/06/28 02:42:15;;;;;;;4.00;2.20;;;;;;;16.48;100.00;101852.78;5072676;28;19932;-36
2023/06/28 02:44:41;;;;;;;;;;;;;;;16.65;100.00;101867.28;5073427;28;20349;-36
2023/06/28 02:47:06;;;;;;;4.90;2.40;;;;;;;16.51;100.00;101860.47;5072576;28;19970;-36
2023/06/28 02:49:31;;;;;;;;;;;;;;;16.62;100.00;101858.75;5073301;28;20107;-36
2023/06/28 02:51:57;;;;;;;4.43;2.10;;;;;;;16.47;100.00;101862.03;5073564;28;20259;-36
2023/06/28 02:54:22;;;;;;;;;;;;;;;16.57;100.00;101858.66;5073431;28;20100;-36
2023/06/28 02:56:47;;;;;;;5.53;2.17;;;;;;;16.27;100.00;101853.47;5072940;28;19979;-36
2023/06/28 02:59:12;;;;;;;;;;;;;;;16.48;100.00;101863.69;5073543;28;20044;-36
2023/06/28 03:01:38;;;;;;;3.35;1.80;;;;;;;16.34;100.00;101859.59;5072784;28;19977;-36
2023/06/28 03:04:03;;;;;;;;;;;;;;;16.47;100.00;101859.31;5073583;28;20445;-36
2023/06/28 03:06:29;;;;;;;4.50;2.47;;;;;;;16.32;100.00;101859.88;5073223;28;19920;-36
2023/06/28 03:08:55;;;;;;;4.07;2.22;;;;;;;16.18;100.00;101856.59;5072614;28;20492;-36
2023/06/28 03:11:20;;;;;;;;;;;;;;;16.38;100.00;101860.78;5073029;28;20044;-36
2023/06/28 03:13:45;;;;;;;10.23;2.10;;;;;;;16.23;100.00;101861.31;5072303;28;19942;-36
2023/06/28 03:16:10;;;;;;;;;;;;;;;16.39;100.00;101862.44;5072748;28;20256;-36
2023/06/28 03:18:36;;;;;;;7.27;2.73;;;;;;;16.23;100.00;101848.50;5072498;28;21815;-36
2023/06/28 03:21:02;;;;;;;;;;;;;;;16.37;100.00;101859.94;5073473;28;20255;-36
2023/06/28 03:23:27;;;;;;;6.43;2.65;;;;;;;16.17;100.00;101840.47;5072810;28;20350;-36
2023/06/28 03:25:53;;;;;;;;;;;;;;;16.37;100.00;101856.41;5073221;28;20052;-36
2023/06/28 03:28:18;;;;;;;5.00;2.50;;;;;;;16.23;100.00;101848.50;5072493;28;20371;-36
2023/06/28 03:30:43;;;;;;;;;;;;;;;16.34;100.00;101854.97;5072707;28;20033;-36
2023/06/28 03:33:09;;;;;;;4.18;2.30;;;;;;;16.20;100.00;101848.16;5072093;28;20338;-36
2023/06/28 03:35:34;;;;;;;;;;;;;;;16.28;100.00;101846.94;5072821;28;20523;-36
2023/06/28 03:37:59;;;;;;;6.37;2.50;;;;;;;16.04;100.00;101832.56;5072439;28;20253;-36
2023/06/28 03:40:25;;;;;;;;;;;;;;;16.25;100.00;101850.16;5073118;28;20604;-37
2023/06/28 03:42:50;;;;;;;4.77;2.30;;;;;;;16.11;100.00;101844.19;5073039;28;19924;-36
2023/06/28 03:45:15;;;;;;;;;;;;;;;16.23;100.00;101842.22;5073490;28;20357;-37
2023/06/28 03:47:41;;;;;;;3.92;2.15;;;;;;;16.01;100.00;101846.72;5076291;28;20003;-36
2023/06/28 03:50:07;;;;;;;;;;;;;;;16.18;100.00;101845.69;5076373;28;20032;-36
2023/06/28 03:52:32;;;;;;;5.03;2.75;;;;;;;16.00;100.00;101839.59;5076022;28;20280;-36
2023/06/28 03:54:58;;;;;;;;;;;;;;;16.18;100.00;101845.69;5076548;28;20099;-36
2023/06/28 03:57:23;;;;;;;6.10;3.42;;;;;;;16.03;100.00;101839.94;5076320;28;19912;-36
2023/06/28 03:59:48;;;;;;;;;;;;;;;16.17;100.00;101848.66;5076350;28;20194;-36
2023/06/28 04:02:14;;;;;;;4.93;2.22;;;;;;;16.06;100.00;101855.84;5075785;28;19918;-36
2023/06/28 04:04:39;;;;;;;;;;;;;;;16.16;100.00;101849.75;5075977;28;20024;-36
2023/06/28 04:07:05;;;;;;;6.10;2.60;;;;;;;16.04;100.00;101846.22;5075566;28;19928;-36
2023/06/28 04:09:31;;;;;;;;;;;;;;;16.15;100.00;101846.19;5076154;28;20027;-36
2023/06/28 04:11:56;;;;;;;5.03;2.38;;;;;;;15.93;100.00;101842.47;5075605;28;19948;-36
2023/06/28 04:14:22;;;;;;;;;;;;;;;16.15;100.00;101842.59;5075708;28;20028;-36
2023/06/28 04:16:47;;;;;;;4.05;2.38;;;;;;;16.04;100.00;101835.31;5075625;28;19951;-36
2023/06/28 04:19:13;;;;;;;;;;;;;;;16.11;100.00;101825.09;5076068;28;20071;-36
2023/06/28 04:21:38;;;;;;;5.07;2.70;;;;;;;15.96;100.00;101836.53;5075919;28;19916;-36
2023/06/28 04:24:03;;;;;;;;;;;;;;;16.08;100.00;101837.31;5075560;28;20279;-37
2023/06/28 04:26:29;;;;;;;4.93;2.47;;;;;;;15.94;100.00;101834.03;5075823;28;20003;-36
2023/06/28 04:28:54;;;;;;;;;;;;;;;16.09;100.00;101836.22;5075538;28;20453;-36
2023/06/28 04:31:19;;;;;;;4.73;2.20;;;;;;;15.95;100.00;101838.41;5075081;28;19966;-36
2023/06/28 04:33:46;;;;;;;;;;;;;;;16.11;100.00;101841.47;5075358;28;20267;-36
2023/06/28 04:36:11;;;;;;;5.63;2.40;;;;;;;15.94;100.00;101844.13;5075723;28;19955;-36
2023/06/28 04:38:37;;;;;;;;;;;;;;;16.07;100.00;101841.13;5075171;28;20112;-37
2023/06/28 04:41:03;;;;;;;5.22;2.13;;;;;;;15.97;100.00;101832.72;5074820;28;19919;-36
2023/06/28 04:43:29;;;;;;;4.70;2.50;;;;;;;15.96;100.00;101842.81;5075213;28;20029;-36
2023/06/28 04:45:55;;;;;;;;;;;;;;;16.11;100.00;101844.19;5075652;28;20337;-36
2023/06/28 04:48:21;;;;;;;4.63;2.30;;;;;;;15.93;100.00;101846.03;5074529;28;19912;-36
2023/06/28 04:50:47;;;;;;;;;;;;;;;16.10;100.00;101845.22;5075704;28;20036;-36
2023/06/28 04:53:13;;;;;;;6.38;2.70;;;;;;;15.98;100.00;101841.75;5074794;28;20007;-36
2023/06/28 04:55:38;;;;;;;;;;;;;;;16.10;100.00;101853.41;5075258;28;20115;-36
2023/06/28 04:58:05;;;;;;;5.05;2.53;;;;;;;16.10;100.00;101858.88;5074828;28;19919;-36
2023/06/28 05:00:32;;;;;;;4.47;2.45;;;;;;;16.10;100.00;101846.06;5075237;28;20079;-36
2023/06/28 05:03:01;;;;;;;4.88;3.00;;;;;;;16.02;100.00;101853.81;5074257;28;20029;-36
2023/06/28 05:05:27;;;;;;;6.40;2.53;;;;;;;16.03;100.00;101836.38;5074956;28;20107;-36
2023/06/28 05:07:53;;;;;;;;;;;;;;;16.19;100.00;101846.50;5074748;28;20029;-36
2023/06/28 05:10:20;;;;;;;6.82;2.88;;;;;;;16.08;100.00;101845.50;5074782;28;19990;-36
2023/06/28 05:12:45;;;;;;;6.93;2.92;;;;;;;16.16;100.00;101841.56;5074797;28;20467;-36
2023/06/28 05:15:10;;;;;;;;;;;;;;;16.27;100.00;101842.56;5073589;28;20056;-36
2023/06/28 05:17:36;;;;;;;6.13;2.92;;;;;;;16.17;100.00;101837.75;5074574;28;20410;-36
2023/06/28 05:20:01;;;;;;;;;;;;;;;16.27;100.00;101840.66;5074642;28;20107;-36
2023/06/28 05:22:27;;;;;;;4.97;3.28;;;;;;;16.14;100.00;101836.31;5074165;28;19912;-36
2023/06/28 05:24:52;;;;;;;5.40;2.85;;;;;;;16.18;100.00;101836.66;5073821;28;20032;-36
2023/06/28 05:27:18;;;;;;;;;;;;;;;16.31;100.00;101838.28;5075000;28;20081;-36
2023/06/28 05:29:43;;;;;;;4.53;2.63;;;;;;;16.21;100.00;101822.53;5074083;28;20387;-36
2023/06/28 05:32:08;;;;;;;;;;;;;;;16.34;100.00;101838.59;5074506;28;20580;-36
2023/06/28 05:34:34;;;;;;;7.05;3.17;;;;;;;16.18;100.00;101834.75;5074450;28;19923;-36
2023/06/28 05:36:59;;;;;;;;;;;;;;;16.33;100.00;101836.13;5074425;28;20211;-37
2023/06/28 05:39:24;;;;;;;6.57;2.87;;;;;;;16.22;100.00;101829.66;5073777;28;19927;-37
2023/06/28 05:41:50;;;;;;;;;;;;;;;16.34;100.00;101829.59;5074279;28;20257;-37
2023/06/28 05:44:18;;;;;;;6.07;2.90;;;;;;;16.27;100.00;101829.75;5073995;28;19909;-37
2023/06/28 05:46:43;;;;;;;5.65;3.17;;;;;;;16.30;100.00;101833.88;5073559;28;20020;-37
2023/06/28 05:49:08;;;;;;;;;;;;;;;16.37;100.00;101832.66;5074070;28;20032;-37
2023/06/28 05:51:34;;;;;;;7.95;3.85;;;;;;;16.23;100.00;101834.84;5074438;28;19996;-37
2023/06/28 05:54:00;;;;;;;;;;;;;;;16.36;100.00;101824.72;5074002;28;20029;-37
2023/06/28 05:56:26;;;;;;;6.45;3.85;;;;;;;16.26;100.00;101825.38;5073388;28;19920;-37
2023/06/28 05:58:52;;;;;;;7.47;3.50;;;;;;;16.19;100.00;101825.50;5073430;28;20419;-37
2023/06/28 06:01:17;;;;;;;;;;;;;;;16.39;100.00;101835.97;5073831;28;20154;-37
2023/06/28 06:03:43;;;;;;;6.40;3.77;;;;;;;16.34;100.00;101837.78;5072771;28;19951;-37
2023/06/28 06:06:08;;;;;;;;;;;;;;;16.44;100.00;101836.03;5073983;28;20259;-37
2023/06/28 06:08:34;;;;;;;7.67;3.60;;;;;;;16.33;100.00;101836.13;5072577;28;19913;-37
2023/06/28 06:10:59;;;;;;;;;;;;;;;16.44;100.00;101832.50;5073950;28;20259;-37
2023/06/28 06:13:24;;;;;;;7.93;4.00;;;;;;;16.28;100.00;101827.84;5073714;28;19977;-40
2023/06/28 06:15:49;;;;;;;;;;;;;;;16.40;100.00;101831.34;5073362;28;20253;-37
2023/06/28 06:18:15;;;;;;;5.80;3.70;;;;;;;16.31;100.00;101817.28;5072994;28;19947;-38
2023/06/28 06:20:40;;;;;;;;;;;;;;;16.48;100.00;101828.19;5073201;28;20275;-37
2023/06/28 06:23:05;;;;;;;6.93;4.07;;;;;;;16.42;100.00;101829.19;5073355;28;19965;-37
2023/06/28 06:25:30;;;;;;;;;;;;;;;16.52;100.00;101823.09;5073565;28;20114;-37
2023/06/28 06:27:56;;;;;;;7.43;4.03;;;;;;;16.50;100.00;101815.16;5072850;28;19919;-37
2023/06/28 06:30:21;;;;;;;;;;;;;;;16.61;100.00;101816.16;5074050;28;20720;-37
2023/06/28 06:32:47;;;;;;;7.93;4.15;;;;;;;16.52;100.00;101801.25;5073344;28;20002;-37
2023/06/28 06:35:14;;;;;;;;;;;;;;;16.67;100.00;101815.97;5073782;28;20029;-37
2023/06/28 06:37:39;;;;;;;6.57;3.97;;;;;;;16.63;100.00;101823.00;5073843;28;19998;-37
2023/06/28 06:40:05;;;;;;;;;;;;;;;16.71;100.00;101816.31;5073587;28;20021;-38
2023/06/28 06:42:31;;;;;;;6.85;3.67;;;;;;;16.58;100.00;101805.69;5073534;28;19916;-36
2023/06/28 06:44:56;;;;;;;;;;;;;;;16.77;100.00;101822.72;5074180;28;20078;-36
2023/06/28 06:47:21;;;;;;;6.37;3.93;;;;;;;16.64;100.00;101819.22;5073657;28;19913;-37
2023/06/28 06:49:46;;;;;;;;;;;;;;;16.78;100.00;101827.09;5073243;28;20275;-37
2023/06/28 06:52:12;;;;;;;6.80;3.70;;;;;;;16.64;100.00;101829.28;5073082;28;19912;-37
2023/06/28 06:54:37;;;;;;;;;;;;;;;16.70;100.00;101829.13;5073579;28;20270;-37
2023/06/28 06:57:03;;;;;;;9.27;4.25;;;;;;;16.61;100.00;101827.88;5073615;28;19912;-37
2023/06/28 06:59:28;;;;;;;;;;;;;;;16.69;100.00;101830.22;5073396;28;20052;-37
2023/06/28 07:01:54;;;;;;;7.97;4.70;;;;;;;16.61;100.00;101832.53;5073611;28;20006;-37
2023/06/28 07:04:21;;;;;;;;;;;;;;;16.66;100.00;101841.63;5073405;28;20460;-37
2023/06/28 07:06:46;;;;;;;13.68;4.88;;;;;;;16.58;100.00;101835.75;5073599;28;19919;-37
2023/06/28 07:09:13;;;;;;;;;;;;;;;16.66;100.00;101843.53;5073909;28;20368;-37
2023/06/28 07:11:38;;;;;;;7.88;4.00;;;;;;;16.55;100.00;101833.53;5073473;28;20116;-37
2023/06/28 07:14:03;;;;;;;;;;;;;;;16.66;100.00;101840.81;5073127;28;20595;-37
2023/06/28 07:16:29;;;;;;;7.40;4.53;;;;;;;16.56;100.00;101838.72;5072889;28;20333;-37
2023/06/28 07:18:54;;;;;;;;;;;;;;;16.66;100.00;101844.34;5073533;28;20313;-36
2023/06/28 07:21:20;;;;;;;8.45;4.65;;;;;;;16.58;100.00;101847.47;5074928;28;19920;-37
2023/06/28 07:23:46;;;;;;;9.52;4.45;;;;;;;16.56;100.00;101836.00;5077243;28;20032;-37
2023/06/28 07:26:14;;;;;;;7.78;4.78;;;;;;;16.60;100.00;101848.09;5077243;28;20029;-37
2023/06/28 07:28:39;;;;;;;7.72;5.35;;;;;;;16.45;100.00;101837.72;5076989;28;20429;-36
2023/06/28 07:31:05;;;;;;;10.40;5.03;;;;;;;16.55;100.00;101850.72;5076766;28;20025;-37
2023/06/28 07:33:30;;;;;;;;;;;;;;;16.70;100.00;101853.72;5077414;28;20098;-37
2023/06/28 07:35:55;;;;;;;7.27;4.73;;;;;;;16.67;100.00;101842.44;5076969;28;19955;-37
2023/06/28 07:38:20;;;;;;;;;;;;;;;16.79;100.00;101836.94;5076989;28;20301;-37
2023/06/28 07:40:47;;;;;;;8.15;4.78;;;;;;;16.78;100.00;101843.47;5076164;28;19935;-37
2023/06/28 07:43:13;;;;;;;7.32;4.85;;;;;;;16.78;100.00;101843.47;5076348;28;20116;-37
2023/06/28 07:45:40;;;;;;;8.48;5.18;;;;;;;16.84;100.00;101843.34;5076376;28;20194;-37
2023/06/28 07:48:05;;;;;;;7.93;5.28;;;;;;;16.81;100.00;101827.44;5076014;28;20484;-37
2023/06/28 07:50:31;;;;;;;9.18;5.15;;;;;;;16.91;100.00;101843.16;5076591;28;20032;-37
2023/06/28 07:52:56;;;;;;;;;;;;;;;17.04;100.00;101840.09;5076945;28;20376;-37
2023/06/28 07:55:21;;;;;;;6.75;5.15;;;;;;;16.97;100.00;101836.69;5076801;28;19908;-37
2023/06/28 07:57:47;;;;;;;;;;;;;;;17.11;100.00;101839.91;5077543;28;20362;-37
2023/06/28 08:00:13;;;;;;;8.83;5.00;;;;;;;17.05;100.00;101839.00;5074988;28;19917;-37
2023/06/28 08:02:38;;;;;;;8.25;4.85;;;;;;;17.19;100.00;101845.78;5076280;28;20352;-37
2023/06/28 08:05:04;;;;;;;9.90;4.88;;;;;;;17.19;100.00;101834.03;5076492;28;20403;-37
2023/06/28 08:07:29;;;;;;;7.35;4.80;;;;;;;17.26;100.00;101837.38;5076303;28;20102;-37
2023/06/28 08:09:55;;;;;;;;;;;;;;;17.39;100.00;101842.50;5076103;28;20511;-37
2023/06/28 08:12:20;;;;;;;6.67;4.27;;;;;;;17.30;100.00;101835.00;5075708;28;19962;-37
2023/06/28 08:14:45;;;;;;;;;;;;;;;17.38;100.00;101831.84;5076259;28;20313;-37
2023/06/28 08:17:11;;;;;;;11.43;4.00;;;;;;;17.31;100.00;101833.91;5076052;28;19912;-37
2023/06/28 08:19:36;;;;;;;;;;;;;;;17.43;100.00;101831.91;5076256;28;20774;-37
2023/06/28 08:22:03;;;;;;;7.25;3.47;;;;;;;17.33;100.00;101823.56;5076329;28;19920;-37
2023/06/28 08:24:29;;;;;;;7.75;3.97;;;;;;;17.34;100.00;101825.22;5075501;28;20029;-37
2023/06/28 08:26:54;;;;;;;8.90;3.60;;;;;;;17.46;100.00;101834.94;5075732;28;20017;-37
2023/06/28 08:29:20;;;;;;;;;;;;;;;17.57;100.00;101837.81;5076327;28;20448;-37
2023/06/28 08:31:45;;;;;;;5.35;3.30;;;;;;;17.49;100.00;101845.38;5075106;28;19951;-37
2023/06/28 08:34:11;;;;;;;;;;;;;;;17.64;100.00;101839.28;5075496;28;20024;-37
2023/06/28 08:36:36;;;;;;;7.93;4.10;;;;;;;17.50;100.00;101835.25;5075035;28;19913;-37
2023/06/28 08:39:02;;;;;;;6.97;3.60;;;;;;;17.53;100.00;101845.72;5075924;28;20032;-37
2023/06/28 08:41:27;;;;;;;;;;;;;;;17.65;100.00;101853.78;5075941;28;20043;-37
2023/06/28 08:43:55;;;;;;;6.75;4.07;;;;;;;17.59;100.00;101847.41;5075300;28;19908;-37
2023/06/28 08:46:22;;;;;;;7.22;3.55;;;;;;;17.58;100.00;101850.41;5075690;28;20029;-37
2023/06/28 08:48:48;;;;;;;6.55;3.58;;;;;;;17.56;100.00;101845.19;5075253;28;20028;-37
2023/06/28 08:51:17;;;;;;;7.47;3.88;;;;;;;17.48;100.00;101834.69;5075821;28;20407;-37
2023/06/28 08:53:45;;;;;;;8.23;4.03;;;;;;;17.52;100.00;101844.06;5074922;28;20050;-37
2023/06/28 08:56:11;;;;;;;6.00;3.30;;;;;;;17.47;100.00;101833.88;5075500;28;20396;-37
2023/06/28 08:58:37;;;;;;;9.23;4.35;;;;;;;17.58;100.00;101843.03;5075080;28;20024;-37
2023/06/28 09:01:02;;;;;;;5.40;3.35;;;;;;;17.54;100.00;101819.19;5075470;28;20545;-37
2023/06/28 09:03:30;;;;;;;6.55;3.83;;;;;;;17.65;100.00;101835.47;5074572;28;20063;-37
2023/06/28 09:05:56;;;;;;;5.53;3.38;;;;;;;17.76;100.00;101822.75;5074964;28;20063;-37
2023/06/28 09:08:22;;;;;;;5.95;3.25;;;;;;;17.86;100.00;101833.00;5074719;28;20108;-37
2023/06/28 09:10:48;;;;;;;8.80;4.00;;;;;;;17.92;100.00;101827.34;5074343;28;20035;-37
2023/06/28 09:13:19;;;;;;;5.88;3.22;;;;;;;17.90;100.00;101829.50;5074573;28;20021;-36
2023/06/28 09:15:48;;;;;;;9.15;3.80;;;;;;;17.93;100.00;101818.06;5074284;28;20125;-36
2023/06/28 09:18:15;;;;;;;7.45;3.25;;;;;;;18.03;100.00;101822.81;5074477;28;20066;-36
2023/06/28 09:20:47;;;;;;;5.85;3.20;;;;;;;18.10;100.00;101826.16;5074369;28;20124;-36
2023/06/28 09:23:13;;;;;;;9.30;3.40;;;;;;;18.14;100.00;101826.47;5074348;28;20024;-36
2023/06/28 09:25:41;;;;;;;9.02;3.63;;;;;;;18.16;100.00;101830.63;5074910;28;20357;-37
2023/06/28 09:28:08;;;;;;;8.27;3.90;;;;;;;18.14;100.00;101827.31;5073761;28;20115;-37
2023/06/28 09:30:35;;;;;;;6.28;3.50;;;;;;;18.16;100.00;101825.16;5074300;28;20108;-37
2023/06/28 09:33:03;;;;;;;7.15;3.60;;;;;;;18.21;100.00;101833.41;5074884;28;20389;-37
2023/06/28 09:35:29;;;;;;;11.95;4.20;;;;;;;18.31;100.00;101827.22;5074189;28;20094;-37
2023/06/28 09:37:57;;;;;;;9.25;3.65;;;;;;;18.38;100.00;101825.06;5074627;28;20056;-37
2023/06/28 09:40:22;;;;;;;7.97;3.60;;;;;;;18.45;100.00;101819.41;5106717;28;20057;-37
2023/06/28 09:42:50;;;;;;;7.32;3.60;;;;;;;18.53;100.00;101827.13;5073495;28;20127;-37
2023/06/28 09:45:27;;;;;;;8.65;3.95;;;;;;;18.62;99.14;101831.03;5073819;28;20372;-37
2023/06/28 09:48:00;;;;;;;5.50;3.53;;;;;;;18.71;100.00;101824.03;5074370;28;20028;-37
2023/06/28 09:50:45;;;;;;;8.70;3.75;;;;;;;18.83;98.92;101823.84;5073974;28;20119;-37
2023/06/28 09:53:12;;;;;;;8.82;3.97;;;;;;;18.89;99.44;101802.81;5074029;28;20021;-37
2023/06/28 09:55:41;;;;;;;5.55;3.05;;;;;;;19.09;97.49;101808.41;5074203;28;20032;-37
2023/06/28 09:58:13;;;;;;;10.30;3.28;;;;;;;19.26;95.95;101814.53;5074148;28;20064;-37
2023/06/28 10:00:41;;;;;;;8.15;4.05;;;;;;;19.29;93.19;101813.19;5073560;28;20052;-37
2023/06/28 10:03:09;;;;;;;9.82;3.95;;;;;;;19.45;93.59;101795.72;5073535;28;20028;-37
2023/06/28 10:05:36;;;;;;;6.75;3.50;;;;;;;19.68;92.52;101810.94;5073922;28;20025;-37
2023/06/28 10:08:19;;;;;;;5.43;2.75;;;;;;;19.89;92.76;101808.25;5073522;28;20075;-37
2023/06/28 10:10:47;;;;;;;8.82;3.58;;;;;;;20.01;91.66;101808.84;5073667;28;20035;-37
2023/06/28 10:13:20;;;;;;;7.75;3.13;;;;;;;20.14;90.58;101802.81;5073279;28;20465;-37
2023/06/28 10:16:09;;;;;;;7.10;3.60;;;;;;;20.36;91.86;101805.34;5073603;28;20056;-37
2023/06/28 10:18:34;;;;;;;7.00;3.13;;;;;;;20.40;85.70;101805.59;5073483;28;20036;-37
2023/06/28 10:21:00;;;;;;;5.78;2.78;;;;;;;20.52;88.10;101803.44;5073788;28;20024;-37
2023/06/28 10:23:26;;;;;;;5.55;3.22;;;;;;;20.62;88.77;101791.63;5072952;28;20029;-37
2023/06/28 10:25:54;;;;;;;8.00;3.35;;;;;;;20.62;85.87;101795.19;5073471;28;20484;-37
2023/06/28 10:28:20;;;;;;;8.43;3.67;;;;;;;20.78;86.52;101799.56;5073107;28;20028;-37
2023/06/28 10:30:47;;;;;;;9.38;3.17;;;;;;;20.74;83.52;101798.50;5073892;28;20039;-37
2023/06/28 10:33:17;;;;;;;5.55;2.50;;;;;;;20.90;84.52;101799.31;5072887;28;20024;-37
2023/06/28 10:35:44;;;;;;;6.80;2.95;;;;;;;21.01;82.59;101795.44;5073525;28;20025;-37
2023/06/28 10:38:09;;;;;;;5.20;3.05;;;;;;;21.13;85.76;101797.91;5073162;28;20101;-41
2023/06/28 10:40:35;;;;;;;6.20;2.95;;;;;;;21.16;83.94;101788.25;5073784;28;20028;-37
2023/06/28 10:43:00;;;;;;;6.90;3.20;;;;;;;21.12;82.71;101784.41;5073245;28;20107;-37
2023/06/28 10:45:36;;;;;;;6.82;3.20;;;;;;;21.29;82.56;101799.50;5073787;28;20107;-36
2023/06/28 10:48:03;;;;;;;8.13;3.05;;;;;;;21.38;81.38;101788.78;5073078;28;20020;-36
2023/06/28 10:50:28;;;;;;;7.10;2.97;;;;;;;21.47;81.14;101802.75;5072952;28;20183;-37
2023/06/28 10:52:56;;;;;;;7.30;3.20;;;;;;;21.46;79.68;101801.94;5073719;28;20032;-37
2023/06/28 10:55:32;;;;;;;3.95;2.42;;;;;;;21.47;78.90;101787.09;5072401;28;20025;-37
2023/06/28 10:58:07;;;;;;;6.78;2.95;;;;;;;21.57;78.85;101791.72;5072849;28;20051;-37
2023/06/28 11:00:47;;;;;;;9.52;2.90;;;;;;;21.74;80.70;101796.88;5072351;28;20059;-37
2023/06/28 11:03:13;;;;;;;5.25;2.50;;;;;;;21.75;77.97;101782.81;5072452;28;20025;-38
2023/06/28 11:05:40;;;;;;;7.80;2.83;;;;;;;21.87;78.00;101778.91;5073276;28;20037;-37
2023/06/28 11:08:10;;;;;;;6.60;3.35;;;;;;;22.01;76.72;101775.25;5072539;28;20025;-37
2023/06/28 11:10:40;;;;;;;6.43;3.28;;;;;;;22.30;77.78;101775.34;5073784;28;20036;-37
2023/06/28 11:13:42;;;;;;;9.00;2.92;;;;;;;22.45;75.60;101776.28;5073017;28;20475;-37
2023/06/28 11:16:09;;;;;;;8.82;3.15;;;;;;;22.39;73.49;101769.19;5071288;28;20043;-37
2023/06/28 11:18:38;;;;;;;6.13;2.67;;;;;;;22.58;74.79;101754.41;5072617;28;20111;-37
2023/06/28 11:21:05;;;;;;;5.90;2.63;;;;;;;22.85;73.31;101766.84;5072945;28;20027;-37
2023/06/28 11:23:41;;;;;;;7.40;2.70;;;;;;;22.88;75.50;101752.47;5072925;28;20028;-37
2023/06/28 11:26:12;;;;;;;8.23;3.38;;;;;;;22.84;72.76;101760.53;5072848;28;20111;-37
2023/06/28 11:28:47;;;;;;;7.15;3.30;;;;;;;22.97;74.83;101752.69;5072606;28;20017;-37
2023/06/28 11:31:16;;;;;;;8.00;3.25;;;;;;;23.29;73.26;101763.91;5072994;28;20032;-37
2023/06/28 11:33:43;;;;;;;6.05;3.47;;;;;;;23.32;71.84;101755.03;5072499;28;20498;-37